Aviation Digital Data Service (ADDS)

Output produced by METARs form (0146 UTC 20 October 2017)
found at http://aviationweather.gov/adds/metars/
 
KARA 200053Z 07007KT 10SM FEW047 24/17 A3012 RMK AO2 SLP198 T02390172